Amherst, TX

2:18 AM CST on March 02, 2015 (GMT -0600)
Spade Coop | Change Station
CLOSE
Current Station
Personal Weather Station
Location: Littlefield, TX
Elevation: 3527 ft
Nearby Weather Stations

Elev 3527 ft 33.93 °N, 102.16 °W | Updated 9 minutes ago

Overcast
Overcast
29.4 °F
Feels Like 29 °F
N
3.0
Wind Variable Wind from NE
Gusts 7.0 mph

Today
High -- | Low -- °F
--% Chance of Precip.
Yesterday
High -- | Low -- °F
Precip. -- in
7:17 AM 6:46 PM
Waxing Gibbous, 90% visible
Pressure 30.35 in
Visibility 5.0 miles
Clouds Overcast 600 ft
Windchill 29 °F
Dew Point 28 °F
Humidity 96%
Rainfall 0.00 in
Snow Depth Not available.
UV 0 out of 12
Pollen 6.60 out of 12
Air Quality Not available.
Flu Activity Not available.
METAR KPVW 020755Z AUTO 08004KT 5SM BR OVC006 M01/M02 A3035 RMK AO2 T10111017 TSNO

More Conditions Fewer Conditions

Pressure 30.35 in
Visibility 5.0 miles
Clouds Overcast 600 ft
Windchill 29 °F
Dew Point 28 °F
Humidity 96%
Rainfall 0.00 in
Snow Depth Not available.
UV 0 out of 12
Pollen 6.60 out of 12
Air Quality Not available.
Flu Activity Not available.
METAR KPVW 020755Z AUTO 08004KT 5SM BR OVC006 M01/M02 A3035 RMK AO2 T10111017 TSNO

More Conditions Fewer Conditions

10-Day Weather Forecast

Almanac

Astronomy

Mar. 02, 2015 Rise Set
Actual Time
Civil Twilight
Nautical Twilight
Astronomical Twilight
Moon
Length of Visible Light
Length of Day
Tomorrow will be .
, % of the Moon is Illuminated

Today's Extremes

State Highs State Lows

Community

WunderPhotos

Upload Photos

1,801,747 photos uploaded!

WunderBlogs® & News

Nearby

Air Quality

  Air Quality AQ Index Pollutant
Not available.

Snow Depth

Station Depth Elevation

Earthquake Activity

City Distance Mag. Time & Date
Minimum magnitude displayed is 2.5.

Coastal Water Temperatures

Place Temperature

Nearby Weather Stations